Current Weather

Boscombe Down

Boscombe Down, United Kingdom (EGDM)

Report from: Tuesday, July 16, 2024 3:20 PM BST
Current time: Tuesday, July 16, 2024 4:08 PM BST

Nearby weather – Weather history – Daily summaries
Weather forecast

Present weatherLight rain showers
Temperature19.0°C (66.2°F)
Dew point14.0°C (57.2°F)
Winds 11 kts (5.7 m/s, 12.7 mph) West-Northwest (290°)
Visibility6.2 mi. (10 km)
Clouds Scattered clouds 2,500 ft. (762 m)
Scattered clouds 3,000 ft. (914 m)
Ceiling: Broken clouds 6,000 ft. (1,829 m)
Altimeter29.88 in.Hg (1012 mB)
Relative humidity73 %
Density altitude733 ft. (223 m)
Remarks No significant changes expected in the next two hours
Flight conditions Visual Meteorological Conditions
Raw dataEGDM 161420Z 29011KT 9999 -SHRA SCT025 SCT030 BKN060 19/14 Q1012 NOSIG
An error has occurred. This application may no longer respond until reloaded. Reload 🗙